KAY53 LOWS-LYTV
Flight info
| Callsign | KAY53 |
|---|---|
| Flight time | N/A |
| Altitude | 39000 |
| Route | VERDA DCT DARZA DCT NERRA DCT TIBRI/N0384F190 L187 TAZ |
| Aircraft | A319/M-SDE3FGHIRWY/LB1 |
Departure
| Time | N/A |
|---|---|
| Airport | Salzburg Airport (LOWS) |
Arrival
| Time | 2026-05-08 21:12 |
|---|---|
| Airport | Tivat Airport (LYTV) |
| Time | Latitude | Longitude | Altitude | Speed | Heading |
|---|---|---|---|---|---|
| 2026-05-08 20:08 | 47.25485 | 13.57058 | 25205 ft | 416 kts | 152° |
| 2026-05-08 20:09 | 47.22968 | 13.59190 | 25744 ft | 419 kts | 152° |
| 2026-05-08 20:09 | 47.20434 | 13.61337 | 26273 ft | 422 kts | 152° |
| 2026-05-08 20:09 | 47.17882 | 13.63497 | 26786 ft | 425 kts | 152° |
| 2026-05-08 20:09 | 47.15307 | 13.65676 | 27296 ft | 429 kts | 153° |
| 2026-05-08 20:10 | 47.12714 | 13.67868 | 27797 ft | 432 kts | 153° |
| 2026-05-08 20:10 | 47.10096 | 13.70076 | 28270 ft | 435 kts | 153° |
| 2026-05-08 20:10 | 47.07463 | 13.72290 | 28770 ft | 438 kts | 153° |
| 2026-05-08 20:10 | 47.04810 | 13.74517 | 29254 ft | 440 kts | 153° |
| 2026-05-08 20:11 | 47.02143 | 13.76750 | 29711 ft | 443 kts | 153° |
| 2026-05-08 20:11 | 46.99456 | 13.78999 | 30162 ft | 446 kts | 153° |
| 2026-05-08 20:11 | 46.96755 | 13.81260 | 30516 ft | 449 kts | 153° |
| 2026-05-08 20:11 | 46.94039 | 13.83535 | 30881 ft | 451 kts | 154° |
| 2026-05-08 20:12 | 46.91314 | 13.85817 | 31261 ft | 452 kts | 154° |
| 2026-05-08 20:12 | 46.88573 | 13.88108 | 31632 ft | 454 kts | 154° |
| 2026-05-08 20:12 | 46.85834 | 13.90394 | 32153 ft | 452 kts | 154° |
| 2026-05-08 20:12 | 46.83106 | 13.92668 | 32705 ft | 451 kts | 154° |
| 2026-05-08 20:13 | 46.80424 | 13.94901 | 33228 ft | 449 kts | 154° |
| 2026-05-08 20:13 | 46.77710 | 13.97154 | 33752 ft | 447 kts | 155° |
| 2026-05-08 20:13 | 46.75022 | 13.99384 | 34339 ft | 443 kts | 155° |
| 2026-05-08 20:13 | 46.72342 | 14.01602 | 34778 ft | 442 kts | 155° |
| 2026-05-08 20:14 | 46.69658 | 14.03817 | 35128 ft | 444 kts | 155° |
| 2026-05-08 20:14 | 46.66965 | 14.06035 | 35484 ft | 446 kts | 154° |
| 2026-05-08 20:14 | 46.64260 | 14.08265 | 35847 ft | 447 kts | 154° |
| 2026-05-08 20:14 | 46.61548 | 14.10502 | 36195 ft | 449 kts | 154° |
| 2026-05-08 20:15 | 46.58828 | 14.12750 | 36545 ft | 450 kts | 154° |
| 2026-05-08 20:15 | 46.56098 | 14.15004 | 36887 ft | 452 kts | 154° |
| 2026-05-08 20:15 | 46.53360 | 14.17259 | 37251 ft | 453 kts | 154° |
| 2026-05-08 20:15 | 46.50611 | 14.19515 | 37618 ft | 454 kts | 154° |
| 2026-05-08 20:16 | 46.47853 | 14.21771 | 37948 ft | 456 kts | 154° |
| 2026-05-08 20:16 | 46.45080 | 14.24036 | 38294 ft | 458 kts | 154° |
| 2026-05-08 20:16 | 46.42303 | 14.26306 | 38676 ft | 459 kts | 154° |
| 2026-05-08 20:16 | 46.39520 | 14.28579 | 38988 ft | 460 kts | 154° |
| 2026-05-08 20:17 | 46.33935 | 14.33134 | 39109 ft | 461 kts | 154° |
| 2026-05-08 20:17 | 46.28343 | 14.37683 | 39111 ft | 461 kts | 154° |
| 2026-05-08 20:18 | 46.22752 | 14.42225 | 39110 ft | 462 kts | 154° |
| 2026-05-08 20:18 | 46.17146 | 14.46762 | 39109 ft | 462 kts | 154° |
| 2026-05-08 20:19 | 46.11541 | 14.51283 | 39109 ft | 461 kts | 154° |
| 2026-05-08 20:19 | 46.05941 | 14.55804 | 39106 ft | 461 kts | 154° |
| 2026-05-08 20:20 | 46.00338 | 14.60316 | 39094 ft | 462 kts | 154° |
| 2026-05-08 20:20 | 45.94724 | 14.64824 | 39089 ft | 462 kts | 154° |
| 2026-05-08 20:21 | 45.89104 | 14.69318 | 39081 ft | 462 kts | 154° |
| 2026-05-08 20:21 | 45.83477 | 14.73799 | 39086 ft | 463 kts | 154° |
| 2026-05-08 20:22 | 45.77888 | 14.78246 | 39094 ft | 462 kts | 154° |
| 2026-05-08 20:22 | 45.72265 | 14.82721 | 39095 ft | 462 kts | 154° |
| 2026-05-08 20:23 | 45.66647 | 14.87189 | 39097 ft | 462 kts | 154° |
| 2026-05-08 20:23 | 45.61022 | 14.91632 | 39097 ft | 462 kts | 154° |
| 2026-05-08 20:24 | 45.55397 | 14.96067 | 39081 ft | 462 kts | 155° |
| 2026-05-08 20:24 | 45.49777 | 15.00517 | 39083 ft | 463 kts | 151° |
| 2026-05-08 20:25 | 45.44513 | 15.05860 | 39095 ft | 465 kts | 147° |
| 2026-05-08 20:25 | 45.39285 | 15.11261 | 39094 ft | 464 kts | 147° |
| 2026-05-08 20:26 | 45.34061 | 15.16647 | 39086 ft | 464 kts | 147° |
| 2026-05-08 20:26 | 45.28823 | 15.22020 | 39080 ft | 465 kts | 147° |
| 2026-05-08 20:27 | 45.23576 | 15.27381 | 39075 ft | 465 kts | 147° |
| 2026-05-08 20:27 | 45.18327 | 15.32743 | 39075 ft | 465 kts | 147° |
| 2026-05-08 20:28 | 45.13109 | 15.38065 | 39080 ft | 466 kts | 147° |
| 2026-05-08 20:28 | 45.07849 | 15.43422 | 39070 ft | 466 kts | 148° |
| 2026-05-08 20:29 | 45.02587 | 15.48783 | 39070 ft | 466 kts | 147° |
| 2026-05-08 20:29 | 44.97319 | 15.54117 | 39084 ft | 466 kts | 148° |
| 2026-05-08 20:30 | 44.92051 | 15.59427 | 39089 ft | 465 kts | 148° |
| 2026-05-08 20:30 | 44.86790 | 15.64725 | 39083 ft | 465 kts | 148° |
| 2026-05-08 20:31 | 44.81525 | 15.70021 | 39081 ft | 465 kts | 148° |
| 2026-05-08 20:31 | 44.76252 | 15.75314 | 39073 ft | 466 kts | 148° |
| 2026-05-08 20:32 | 44.70974 | 15.80592 | 39085 ft | 465 kts | 148° |
| 2026-05-08 20:32 | 44.65695 | 15.85867 | 39083 ft | 466 kts | 148° |
| 2026-05-08 20:33 | 44.60411 | 15.91127 | 39084 ft | 466 kts | 148° |
| 2026-05-08 20:33 | 44.55118 | 15.96384 | 39087 ft | 466 kts | 148° |
| 2026-05-08 20:34 | 44.49820 | 16.01639 | 39076 ft | 467 kts | 148° |
| 2026-05-08 20:35 | 44.41866 | 16.09510 | 39082 ft | 467 kts | 149° |
| 2026-05-08 20:35 | 44.36559 | 16.14753 | 39078 ft | 468 kts | 149° |
| 2026-05-08 20:36 | 44.31237 | 16.19987 | 39087 ft | 468 kts | 149° |
| 2026-05-08 20:36 | 44.25909 | 16.25217 | 39088 ft | 468 kts | 149° |
| 2026-05-08 20:37 | 44.20578 | 16.30438 | 39076 ft | 468 kts | 149° |
| 2026-05-08 20:37 | 44.15249 | 16.35653 | 39073 ft | 468 kts | 149° |
| 2026-05-08 20:38 | 44.09909 | 16.40862 | 39074 ft | 469 kts | 149° |
| 2026-05-08 20:38 | 44.04556 | 16.46063 | 39080 ft | 470 kts | 149° |
| 2026-05-08 20:39 | 43.99195 | 16.51262 | 39079 ft | 470 kts | 149° |
| 2026-05-08 20:39 | 43.93832 | 16.56462 | 39065 ft | 470 kts | 149° |
| 2026-05-08 20:40 | 43.88499 | 16.61624 | 39074 ft | 471 kts | 149° |
| 2026-05-08 20:40 | 43.83090 | 16.66836 | 39068 ft | 471 kts | 150° |
| 2026-05-08 20:41 | 43.77710 | 16.72004 | 39058 ft | 471 kts | 150° |
| 2026-05-08 20:41 | 43.72361 | 16.77131 | 39045 ft | 471 kts | 150° |
| 2026-05-08 20:42 | 43.66972 | 16.82292 | 39049 ft | 472 kts | 150° |
| 2026-05-08 20:42 | 43.61575 | 16.87460 | 39050 ft | 472 kts | 150° |
| 2026-05-08 20:43 | 43.56170 | 16.92617 | 39047 ft | 473 kts | 150° |
| 2026-05-08 20:43 | 43.50756 | 16.97767 | 39054 ft | 473 kts | 150° |
| 2026-05-08 20:44 | 43.45333 | 17.02921 | 39058 ft | 474 kts | 150° |
| 2026-05-08 20:44 | 43.39906 | 17.08064 | 39051 ft | 474 kts | 150° |
| 2026-05-08 20:45 | 43.34473 | 17.13192 | 39059 ft | 474 kts | 150° |
| 2026-05-08 20:45 | 43.29040 | 17.18312 | 39033 ft | 474 kts | 150° |
| 2026-05-08 20:46 | 43.23636 | 17.23400 | 39032 ft | 474 kts | 150° |
| 2026-05-08 20:46 | 43.18194 | 17.28520 | 39033 ft | 475 kts | 150° |
| 2026-05-08 20:47 | 43.12738 | 17.33626 | 39036 ft | 476 kts | 150° |
| 2026-05-08 20:47 | 43.07268 | 17.38728 | 39033 ft | 476 kts | 150° |
| 2026-05-08 20:48 | 43.01800 | 17.43831 | 39028 ft | 476 kts | 150° |
| 2026-05-08 20:48 | 42.96343 | 17.48927 | 38479 ft | 475 kts | 150° |
| 2026-05-08 20:48 | 42.93618 | 17.51479 | 37720 ft | 477 kts | 148° |
| 2026-05-08 20:49 | 42.91066 | 17.54406 | 36954 ft | 483 kts | 139° |
| 2026-05-08 20:49 | 42.88839 | 17.57877 | 36169 ft | 489 kts | 129° |
| 2026-05-08 20:49 | 42.86939 | 17.61752 | 35359 ft | 493 kts | 125° |
| 2026-05-08 20:49 | 42.85064 | 17.65682 | 34525 ft | 496 kts | 126° |
| 2026-05-08 20:50 | 42.83169 | 17.69622 | 33607 ft | 499 kts | 126° |
| 2026-05-08 20:50 | 42.81249 | 17.73582 | 32575 ft | 502 kts | 126° |
| 2026-05-08 20:50 | 42.79343 | 17.77497 | 31647 ft | 503 kts | 126° |
| 2026-05-08 20:50 | 42.77412 | 17.81461 | 30764 ft | 501 kts | 126° |
| 2026-05-08 20:51 | 42.75485 | 17.85414 | 29803 ft | 500 kts | 126° |
| 2026-05-08 20:51 | 42.73562 | 17.89356 | 28690 ft | 500 kts | 125° |
| 2026-05-08 20:51 | 42.71644 | 17.93289 | 27561 ft | 498 kts | 125° |
| 2026-05-08 20:51 | 42.69735 | 17.97206 | 26414 ft | 497 kts | 125° |
| 2026-05-08 20:52 | 42.68448 | 17.99849 | 25621 ft | 495 kts | 125° |
| 2026-05-08 20:52 | 42.66574 | 18.03691 | 24448 ft | 493 kts | 125° |
| 2026-05-08 20:52 | 42.64678 | 18.07567 | 23255 ft | 491 kts | 125° |
| 2026-05-08 20:52 | 42.62794 | 18.11413 | 21784 ft | 490 kts | 124° |
| 2026-05-08 20:53 | 42.60908 | 18.15257 | 20528 ft | 487 kts | 124° |
| 2026-05-08 20:53 | 42.59048 | 18.19048 | 19811 ft | 474 kts | 124° |
| 2026-05-08 20:53 | 42.57253 | 18.22702 | 19177 ft | 460 kts | 124° |
| 2026-05-08 20:53 | 42.55495 | 18.26275 | 18391 ft | 452 kts | 124° |
| 2026-05-08 20:54 | 42.53759 | 18.29795 | 17438 ft | 446 kts | 125° |
| 2026-05-08 20:54 | 42.52041 | 18.33267 | 16548 ft | 441 kts | 124° |
| 2026-05-08 20:54 | 42.50342 | 18.36689 | 15769 ft | 434 kts | 124° |
| 2026-05-08 20:54 | 42.48674 | 18.40058 | 15020 ft | 428 kts | 124° |
| 2026-05-08 20:55 | 42.47041 | 18.43361 | 14742 ft | 413 kts | 124° |
| 2026-05-08 20:55 | 42.45474 | 18.46529 | 14507 ft | 397 kts | 124° |
| 2026-05-08 20:55 | 42.43962 | 18.49575 | 14257 ft | 382 kts | 124° |
| 2026-05-08 20:55 | 42.42505 | 18.52502 | 14021 ft | 369 kts | 125° |
| 2026-05-08 20:56 | 42.41088 | 18.55349 | 13778 ft | 362 kts | 124° |
| 2026-05-08 20:56 | 42.39672 | 18.58149 | 13515 ft | 359 kts | 126° |
| 2026-05-08 20:56 | 42.38241 | 18.60910 | 13256 ft | 357 kts | 126° |
| 2026-05-08 20:56 | 42.36804 | 18.63638 | 12990 ft | 355 kts | 126° |
| 2026-05-08 20:57 | 42.35390 | 18.66309 | 12732 ft | 353 kts | 126° |
| 2026-05-08 20:57 | 42.33805 | 18.68862 | 12274 ft | 348 kts | 137° |
| 2026-05-08 20:57 | 42.31905 | 18.70778 | 11696 ft | 344 kts | 150° |
| 2026-05-08 20:57 | 42.29715 | 18.72045 | 11100 ft | 342 kts | 163° |
| 2026-05-08 20:58 | 42.27387 | 18.72587 | 10571 ft | 338 kts | 175° |
| 2026-05-08 20:58 | 42.25098 | 18.72822 | 10445 ft | 321 kts | 175° |
| 2026-05-08 20:58 | 42.22923 | 18.73072 | 10322 ft | 307 kts | 175° |
| 2026-05-08 20:58 | 42.20838 | 18.73322 | 10187 ft | 295 kts | 175° |
| 2026-05-08 20:59 | 42.18819 | 18.73567 | 9928 ft | 288 kts | 175° |
| 2026-05-08 20:59 | 42.16836 | 18.73803 | 9761 ft | 284 kts | 175° |
| 2026-05-08 20:59 | 42.14883 | 18.74137 | 9339 ft | 282 kts | 166° |
| 2026-05-08 20:59 | 42.13033 | 18.74967 | 8939 ft | 279 kts | 158° |
| 2026-05-08 21:00 | 42.11236 | 18.75899 | 8706 ft | 272 kts | 158° |
| 2026-05-08 21:00 | 42.09562 | 18.76932 | 8567 ft | 257 kts | 143° |
| 2026-05-08 21:00 | 42.08430 | 18.78668 | 8257 ft | 244 kts | 115° |
| 2026-05-08 21:00 | 42.08069 | 18.80863 | 7839 ft | 242 kts | 87° |
| 2026-05-08 21:01 | 42.08481 | 18.83032 | 7598 ft | 237 kts | 68° |
| 2026-05-08 21:01 | 42.09072 | 18.85031 | 7407 ft | 224 kts | 65° |
| 2026-05-08 21:01 | 42.09990 | 18.86632 | 7243 ft | 212 kts | 39° |
| 2026-05-08 21:01 | 42.11260 | 18.87484 | 7118 ft | 200 kts | 16° |
| 2026-05-08 21:02 | 42.12635 | 18.87541 | 6859 ft | 199 kts | 351° |
| 2026-05-08 21:02 | 42.13972 | 18.87060 | 6562 ft | 198 kts | 347° |
| 2026-05-08 21:02 | 42.15299 | 18.86567 | 6259 ft | 197 kts | 347° |
| 2026-05-08 21:02 | 42.16606 | 18.86016 | 5951 ft | 197 kts | 341° |
| 2026-05-08 21:03 | 42.17881 | 18.85352 | 5582 ft | 196 kts | 341° |
| 2026-05-08 21:03 | 42.19153 | 18.84697 | 5168 ft | 196 kts | 341° |
| 2026-05-08 21:03 | 42.20424 | 18.84044 | 4757 ft | 195 kts | 341° |
| 2026-05-08 21:03 | 42.21692 | 18.83391 | 4343 ft | 195 kts | 341° |
| 2026-05-08 21:04 | 42.22952 | 18.82742 | 3962 ft | 193 kts | 340° |
| 2026-05-08 21:04 | 42.24206 | 18.82096 | 3659 ft | 192 kts | 340° |
| 2026-05-08 21:04 | 42.25451 | 18.81454 | 3404 ft | 191 kts | 340° |
| 2026-05-08 21:04 | 42.26645 | 18.80839 | 3271 ft | 174 kts | 339° |
| 2026-05-08 21:05 | 42.27678 | 18.80218 | 3149 ft | 150 kts | 330° |
| 2026-05-08 21:05 | 42.28468 | 18.79450 | 3007 ft | 132 kts | 319° |
| 2026-05-08 21:05 | 42.29082 | 18.78577 | 2756 ft | 127 kts | 308° |
| 2026-05-08 21:05 | 42.29637 | 18.77657 | 2462 ft | 126 kts | 309° |
| 2026-05-08 21:06 | 42.30189 | 18.76747 | 2188 ft | 124 kts | 309° |
| 2026-05-08 21:06 | 42.30733 | 18.75848 | 1927 ft | 122 kts | 309° |
| 2026-05-08 21:06 | 42.31261 | 18.74957 | 1735 ft | 121 kts | 309° |
| 2026-05-08 21:06 | 42.31792 | 18.74071 | 1674 ft | 121 kts | 310° |
| 2026-05-08 21:07 | 42.32331 | 18.73189 | 1635 ft | 122 kts | 310° |
| 2026-05-08 21:07 | 42.32871 | 18.72304 | 1657 ft | 122 kts | 310° |
| 2026-05-08 21:07 | 42.33414 | 18.71416 | 1682 ft | 123 kts | 310° |
| 2026-05-08 21:07 | 42.33957 | 18.70528 | 1682 ft | 122 kts | 310° |
| 2026-05-08 21:08 | 42.34531 | 18.69680 | 1618 ft | 122 kts | 316° |
| 2026-05-08 21:08 | 42.35262 | 18.69100 | 1442 ft | 123 kts | 341° |
| 2026-05-08 21:08 | 42.36062 | 18.68719 | 1331 ft | 122 kts | 339° |
| 2026-05-08 21:08 | 42.36865 | 18.68354 | 1208 ft | 121 kts | 342° |
| 2026-05-08 21:09 | 42.37669 | 18.68012 | 1055 ft | 121 kts | 342° |
| 2026-05-08 21:09 | 42.38471 | 18.67674 | 927 ft | 121 kts | 342° |
| 2026-05-08 21:09 | 42.39260 | 18.67340 | 829 ft | 120 kts | 341° |
| 2026-05-08 21:09 | 42.40055 | 18.66997 | 762 ft | 120 kts | 341° |
| 2026-05-08 21:10 | 42.40850 | 18.66643 | 701 ft | 120 kts | 340° |
| 2026-05-08 21:10 | 42.41660 | 18.66365 | 574 ft | 126 kts | 2° |
| 2026-05-08 21:10 | 42.42327 | 18.67035 | 317 ft | 124 kts | 64° |
| 2026-05-08 21:10 | 42.42421 | 18.68209 | 324 ft | 130 kts | 98° |
| 2026-05-08 21:11 | 42.42311 | 18.69397 | 356 ft | 127 kts | 99° |
| 2026-05-08 21:11 | 42.41955 | 18.70489 | 208 ft | 127 kts | 128° |
| 2026-05-08 21:11 | 42.41327 | 18.71312 | 56 ft | 125 kts | 138° |
| 2026-05-08 21:11 | 42.40707 | 18.72042 | 2 ft | 101 kts | 139° |
| 2026-05-08 21:12 | 42.40350 | 18.72463 | 6 ft | 24 kts | 146° |
| 2026-05-08 21:12 | 42.40322 | 18.72493 | 6 ft | 3 kts | 12° |
| 2026-05-08 21:12 | 42.40367 | 18.72443 | 6 ft | 15 kts | 318° |
| 2026-05-08 21:12 | 42.40479 | 18.72311 | 3 ft | 26 kts | 319° |
| 2026-05-08 21:13 | 42.40619 | 18.72146 | 0 ft | 28 kts | 319° |
| 2026-05-08 21:13 | 42.40770 | 18.71970 | 3 ft | 29 kts | 319° |
| 2026-05-08 21:13 | 42.40916 | 18.71801 | 6 ft | 18 kts | 332° |
| 2026-05-08 21:13 | 42.40996 | 18.71850 | 7 ft | 9 kts | 28° |
| 2026-05-08 21:14 | 42.41058 | 18.71806 | 7 ft | 13 kts | 320° |
| 2026-05-08 21:14 | 42.41134 | 18.71716 | 7 ft | 14 kts | 318° |
| 2026-05-08 21:14 | 42.41198 | 18.71641 | 7 ft | 12 kts | 320° |
| 2026-05-08 21:14 | 42.41248 | 18.71600 | 5 ft | 8 kts | 2° |
| 2026-05-08 21:15 | 42.41272 | 18.71632 | 8 ft | 1 kts | 77° |
| 2026-05-08 21:15 | 42.41266 | 18.71644 | 8 ft | 2 kts | 128° |
| 2026-05-08 21:15 | 42.41250 | 18.71649 | 8 ft | 2 kts | 162° |
| 2026-05-08 21:15 | 42.41247 | 18.71651 | 8 ft | 0 kts | 157° |